sensor_id;sensor_type;location;lat;lon;timestamp;P1;durP1;ratioP1;P2;durP2;ratioP2
62435;SDS011;48480;50.252;18.848;2023-05-16T00:01:21;8.80;;;7.20;;
62435;SDS011;48480;50.252;18.848;2023-05-16T00:04:05;9.30;;;7.20;;
62435;SDS011;48480;50.252;18.848;2023-05-16T00:06:50;8.10;;;7.30;;
62435;SDS011;48480;50.252;18.848;2023-05-16T00:09:33;9.30;;;7.10;;
62435;SDS011;48480;50.252;18.848;2023-05-16T00:12:17;8.60;;;6.90;;
62435;SDS011;48480;50.252;18.848;2023-05-16T00:15:02;9.00;;;7.70;;
62435;SDS011;48480;50.252;18.848;2023-05-16T00:17:52;8.50;;;6.80;;
62435;SDS011;48480;50.252;18.848;2023-05-16T00:20:40;8.10;;;6.70;;
62435;SDS011;48480;50.252;18.848;2023-05-16T00:23:24;11.60;;;7.60;;
62435;SDS011;48480;50.252;18.848;2023-05-16T00:26:08;8.20;;;7.20;;
62435;SDS011;48480;50.252;18.848;2023-05-16T00:28:52;10.90;;;6.40;;
62435;SDS011;48480;50.252;18.848;2023-05-16T00:31:36;9.00;;;6.60;;
62435;SDS011;48480;50.252;18.848;2023-05-16T00:34:20;8.40;;;6.40;;
62435;SDS011;48480;50.252;18.848;2023-05-16T00:37:05;8.50;;;6.40;;
62435;SDS011;48480;50.252;18.848;2023-05-16T00:39:49;9.70;;;6.90;;
62435;SDS011;48480;50.252;18.848;2023-05-16T00:42:33;8.00;;;6.30;;
62435;SDS011;48480;50.252;18.848;2023-05-16T00:45:16;7.10;;;6.30;;
62435;SDS011;48480;50.252;18.848;2023-05-16T00:48:02;7.50;;;6.70;;
62435;SDS011;48480;50.252;18.848;2023-05-16T00:50:46;9.50;;;6.00;;
62435;SDS011;48480;50.252;18.848;2023-05-16T00:53:30;8.40;;;6.10;;
62435;SDS011;48480;50.252;18.848;2023-05-16T00:56:14;9.10;;;6.80;;
62435;SDS011;48480;50.252;18.848;2023-05-16T00:59:00;7.90;;;6.70;;
62435;SDS011;48480;50.252;18.848;2023-05-16T01:01:44;7.30;;;6.50;;
62435;SDS011;48480;50.252;18.848;2023-05-16T01:04:30;7.30;;;6.30;;
62435;SDS011;48480;50.252;18.848;2023-05-16T01:07:15;8.40;;;6.50;;
62435;SDS011;48480;50.252;18.848;2023-05-16T01:09:59;8.80;;;6.60;;
62435;SDS011;48480;50.252;18.848;2023-05-16T01:12:47;8.70;;;7.00;;
62435;SDS011;48480;50.252;18.848;2023-05-16T01:15:38;8.50;;;7.30;;
62435;SDS011;48480;50.252;18.848;2023-05-16T01:21:31;11.10;;;6.80;;
62435;SDS011;48480;50.252;18.848;2023-05-16T01:24:32;9.10;;;7.00;;
62435;SDS011;48480;50.252;18.848;2023-05-16T01:27:17;9.20;;;7.30;;
62435;SDS011;48480;50.252;18.848;2023-05-16T01:30:10;11.20;;;7.30;;
62435;SDS011;48480;50.252;18.848;2023-05-16T01:32:57;12.10;;;7.30;;
62435;SDS011;48480;50.252;18.848;2023-05-16T01:42:00;10.30;;;7.10;;
62435;SDS011;48480;50.252;18.848;2023-05-16T01:45:05;11.10;;;8.50;;
62435;SDS011;48480;50.252;18.848;2023-05-16T01:48:29;12.10;;;8.90;;
62435;SDS011;48480;50.252;18.848;2023-05-16T01:51:09;12.50;;;9.90;;
62435;SDS011;48480;50.252;18.848;2023-05-16T01:53:57;12.80;;;9.50;;
62435;SDS011;48480;50.252;18.848;2023-05-16T01:56:51;12.80;;;8.50;;
62435;SDS011;48480;50.252;18.848;2023-05-16T01:59:38;12.50;;;8.80;;
62435;SDS011;48480;50.252;18.848;2023-05-16T02:02:25;9.90;;;8.50;;
62435;SDS011;48480;50.252;18.848;2023-05-16T02:05:09;11.90;;;8.60;;
62435;SDS011;48480;50.252;18.848;2023-05-16T02:07:53;11.10;;;8.50;;
62435;SDS011;48480;50.252;18.848;2023-05-16T02:10:37;9.00;;;7.50;;
62435;SDS011;48480;50.252;18.848;2023-05-16T02:13:23;10.30;;;7.70;;
62435;SDS011;48480;50.252;18.848;2023-05-16T02:16:09;11.10;;;7.40;;
62435;SDS011;48480;50.252;18.848;2023-05-16T02:18:54;11.50;;;7.70;;
62435;SDS011;48480;50.252;18.848;2023-05-16T02:21:38;11.10;;;8.10;;
62435;SDS011;48480;50.252;18.848;2023-05-16T02:24:22;10.80;;;8.30;;
62435;SDS011;48480;50.252;18.848;2023-05-16T02:27:06;12.80;;;8.70;;
62435;SDS011;48480;50.252;18.848;2023-05-16T02:29:50;13.10;;;8.50;;
62435;SDS011;48480;50.252;18.848;2023-05-16T02:32:35;11.90;;;8.70;;
62435;SDS011;48480;50.252;18.848;2023-05-16T02:35:19;10.00;;;8.20;;
62435;SDS011;48480;50.252;18.848;2023-05-16T02:38:05;9.40;;;7.50;;
62435;SDS011;48480;50.252;18.848;2023-05-16T02:40:49;9.60;;;7.90;;
62435;SDS011;48480;50.252;18.848;2023-05-16T02:43:33;9.70;;;7.80;;
62435;SDS011;48480;50.252;18.848;2023-05-16T02:49:13;9.80;;;6.90;;
62435;SDS011;48480;50.252;18.848;2023-05-16T02:51:57;10.60;;;6.90;;
62435;SDS011;48480;50.252;18.848;2023-05-16T02:54:41;8.70;;;6.90;;
62435;SDS011;48480;50.252;18.848;2023-05-16T02:57:25;11.30;;;7.20;;
62435;SDS011;48480;50.252;18.848;2023-05-16T03:00:09;8.80;;;6.70;;
62435;SDS011;48480;50.252;18.848;2023-05-16T03:02:54;9.80;;;7.10;;
62435;SDS011;48480;50.252;18.848;2023-05-16T03:05:38;9.50;;;6.80;;
62435;SDS011;48480;50.252;18.848;2023-05-16T03:08:22;7.80;;;6.50;;
62435;SDS011;48480;50.252;18.848;2023-05-16T03:11:06;8.50;;;6.70;;
62435;SDS011;48480;50.252;18.848;2023-05-16T03:13:50;8.90;;;6.70;;
62435;SDS011;48480;50.252;18.848;2023-05-16T03:16:34;9.30;;;7.00;;
62435;SDS011;48480;50.252;18.848;2023-05-16T03:19:19;10.20;;;6.90;;
62435;SDS011;48480;50.252;18.848;2023-05-16T03:22:03;8.90;;;6.60;;
62435;SDS011;48480;50.252;18.848;2023-05-16T03:24:48;9.00;;;6.40;;
62435;SDS011;48480;50.252;18.848;2023-05-16T03:27:33;7.80;;;6.90;;
62435;SDS011;48480;50.252;18.848;2023-05-16T03:30:24;10.50;;;6.20;;
62435;SDS011;48480;50.252;18.848;2023-05-16T03:33:10;9.20;;;6.90;;
62435;SDS011;48480;50.252;18.848;2023-05-16T03:35:55;8.00;;;6.90;;
62435;SDS011;48480;50.252;18.848;2023-05-16T03:38:40;8.90;;;6.60;;
62435;SDS011;48480;50.252;18.848;2023-05-16T03:41:24;8.50;;;6.50;;
62435;SDS011;48480;50.252;18.848;2023-05-16T03:44:08;8.70;;;7.00;;
62435;SDS011;48480;50.252;18.848;2023-05-16T03:46:52;10.10;;;7.00;;
62435;SDS011;48480;50.252;18.848;2023-05-16T03:49:38;9.70;;;6.90;;
62435;SDS011;48480;50.252;18.848;2023-05-16T03:52:23;8.30;;;7.00;;
62435;SDS011;48480;50.252;18.848;2023-05-16T03:55:07;10.90;;;7.80;;
62435;SDS011;48480;50.252;18.848;2023-05-16T03:57:52;11.40;;;7.60;;
62435;SDS011;48480;50.252;18.848;2023-05-16T04:00:36;9.30;;;7.40;;
62435;SDS011;48480;50.252;18.848;2023-05-16T04:03:24;9.10;;;7.00;;
62435;SDS011;48480;50.252;18.848;2023-05-16T04:06:10;10.80;;;7.60;;
62435;SDS011;48480;50.252;18.848;2023-05-16T04:08:54;10.10;;;7.30;;
62435;SDS011;48480;50.252;18.848;2023-05-16T04:11:38;11.00;;;7.90;;
62435;SDS011;48480;50.252;18.848;2023-05-16T04:14:22;12.70;;;7.50;;
62435;SDS011;48480;50.252;18.848;2023-05-16T04:17:06;12.60;;;7.50;;
62435;SDS011;48480;50.252;18.848;2023-05-16T04:19:50;10.50;;;7.60;;
62435;SDS011;48480;50.252;18.848;2023-05-16T04:22:34;10.60;;;7.60;;
62435;SDS011;48480;50.252;18.848;2023-05-16T04:25:18;10.90;;;7.90;;
62435;SDS011;48480;50.252;18.848;2023-05-16T04:28:03;8.50;;;7.40;;
62435;SDS011;48480;50.252;18.848;2023-05-16T04:30:47;9.40;;;7.60;;
62435;SDS011;48480;50.252;18.848;2023-05-16T04:33:32;8.70;;;6.70;;
62435;SDS011;48480;50.252;18.848;2023-05-16T04:36:16;9.80;;;7.50;;
62435;SDS011;48480;50.252;18.848;2023-05-16T04:39:00;10.20;;;7.70;;
62435;SDS011;48480;50.252;18.848;2023-05-16T04:41:44;8.60;;;7.10;;
62435;SDS011;48480;50.252;18.848;2023-05-16T04:44:28;8.00;;;7.10;;
62435;SDS011;48480;50.252;18.848;2023-05-16T04:47:13;9.20;;;7.70;;
62435;SDS011;48480;50.252;18.848;2023-05-16T04:49:57;16.30;;;10.80;;
62435;SDS011;48480;50.252;18.848;2023-05-16T04:52:41;10.70;;;8.00;;
62435;SDS011;48480;50.252;18.848;2023-05-16T04:55:25;10.80;;;8.00;;
62435;SDS011;48480;50.252;18.848;2023-05-16T04:58:09;9.10;;;7.40;;
62435;SDS011;48480;50.252;18.848;2023-05-16T05:00:53;12.10;;;7.10;;
62435;SDS011;48480;50.252;18.848;2023-05-16T05:03:38;7.90;;;7.00;;
62435;SDS011;48480;50.252;18.848;2023-05-16T05:06:22;8.50;;;6.30;;
62435;SDS011;48480;50.252;18.848;2023-05-16T05:09:06;8.10;;;6.90;;
62435;SDS011;48480;50.252;18.848;2023-05-16T05:11:50;7.50;;;6.60;;
62435;SDS011;48480;50.252;18.848;2023-05-16T05:14:35;8.20;;;6.50;;
62435;SDS011;48480;50.252;18.848;2023-05-16T05:17:19;7.30;;;5.90;;
62435;SDS011;48480;50.252;18.848;2023-05-16T05:20:04;7.30;;;5.70;;
62435;SDS011;48480;50.252;18.848;2023-05-16T05:22:49;6.30;;;5.30;;
62435;SDS011;48480;50.252;18.848;2023-05-16T05:25:34;7.20;;;5.40;;
62435;SDS011;48480;50.252;18.848;2023-05-16T05:28:19;8.70;;;5.80;;
62435;SDS011;48480;50.252;18.848;2023-05-16T05:31:03;7.10;;;5.40;;
62435;SDS011;48480;50.252;18.848;2023-05-16T05:33:50;7.30;;;6.10;;
62435;SDS011;48480;50.252;18.848;2023-05-16T05:36:34;7.40;;;5.20;;
62435;SDS011;48480;50.252;18.848;2023-05-16T05:39:18;11.60;;;5.50;;
62435;SDS011;48480;50.252;18.848;2023-05-16T05:42:02;8.00;;;5.40;;
62435;SDS011;48480;50.252;18.848;2023-05-16T05:44:46;9.00;;;5.30;;
62435;SDS011;48480;50.252;18.848;2023-05-16T05:47:30;6.40;;;5.30;;
62435;SDS011;48480;50.252;18.848;2023-05-16T05:50:15;8.10;;;5.60;;
62435;SDS011;48480;50.252;18.848;2023-05-16T05:52:59;7.30;;;5.20;;
62435;SDS011;48480;50.252;18.848;2023-05-16T05:55:43;8.30;;;5.30;;
62435;SDS011;48480;50.252;18.848;2023-05-16T05:58:27;6.50;;;5.30;;
62435;SDS011;48480;50.252;18.848;2023-05-16T06:01:11;6.10;;;5.30;;
62435;SDS011;48480;50.252;18.848;2023-05-16T06:03:56;6.70;;;5.70;;
62435;SDS011;48480;50.252;18.848;2023-05-16T06:06:40;6.80;;;5.60;;
62435;SDS011;48480;50.252;18.848;2023-05-16T06:09:24;8.10;;;5.30;;
62435;SDS011;48480;50.252;18.848;2023-05-16T06:12:08;5.60;;;4.90;;
62435;SDS011;48480;50.252;18.848;2023-05-16T06:14:52;7.00;;;5.70;;
62435;SDS011;48480;50.252;18.848;2023-05-16T06:17:36;7.00;;;5.10;;
62435;SDS011;48480;50.252;18.848;2023-05-16T06:20:20;6.00;;;5.10;;
62435;SDS011;48480;50.252;18.848;2023-05-16T06:23:05;8.30;;;5.30;;
62435;SDS011;48480;50.252;18.848;2023-05-16T06:25:49;8.20;;;5.50;;
62435;SDS011;48480;50.252;18.848;2023-05-16T06:28:34;6.80;;;5.60;;
62435;SDS011;48480;50.252;18.848;2023-05-16T06:31:17;5.90;;;5.20;;
62435;SDS011;48480;50.252;18.848;2023-05-16T06:34:02;10.40;;;5.20;;
62435;SDS011;48480;50.252;18.848;2023-05-16T06:36:46;7.90;;;5.30;;
62435;SDS011;48480;50.252;18.848;2023-05-16T06:39:33;6.30;;;5.40;;
62435;SDS011;48480;50.252;18.848;2023-05-16T06:42:18;6.30;;;5.40;;
62435;SDS011;48480;50.252;18.848;2023-05-16T06:45:03;6.40;;;5.00;;
62435;SDS011;48480;50.252;18.848;2023-05-16T06:47:47;5.90;;;5.30;;
62435;SDS011;48480;50.252;18.848;2023-05-16T06:50:31;5.90;;;5.00;;
62435;SDS011;48480;50.252;18.848;2023-05-16T06:53:15;6.20;;;4.80;;
62435;SDS011;48480;50.252;18.848;2023-05-16T06:55:59;6.90;;;4.90;;
62435;SDS011;48480;50.252;18.848;2023-05-16T06:58:44;9.10;;;5.70;;
62435;SDS011;48480;50.252;18.848;2023-05-16T07:01:28;8.20;;;4.90;;
62435;SDS011;48480;50.252;18.848;2023-05-16T07:04:12;5.90;;;4.60;;
62435;SDS011;48480;50.252;18.848;2023-05-16T07:06:57;6.50;;;4.70;;
62435;SDS011;48480;50.252;18.848;2023-05-16T07:09:42;6.30;;;4.80;;
62435;SDS011;48480;50.252;18.848;2023-05-16T07:12:27;4.90;;;4.40;;
62435;SDS011;48480;50.252;18.848;2023-05-16T07:15:11;9.20;;;5.10;;
62435;SDS011;48480;50.252;18.848;2023-05-16T07:17:56;6.10;;;5.00;;
62435;SDS011;48480;50.252;18.848;2023-05-16T07:20:46;5.50;;;4.70;;
62435;SDS011;48480;50.252;18.848;2023-05-16T07:26:16;6.10;;;4.90;;
62435;SDS011;48480;50.252;18.848;2023-05-16T07:29:06;8.00;;;5.70;;
62435;SDS011;48480;50.252;18.848;2023-05-16T07:31:56;5.30;;;4.50;;
62435;SDS011;48480;50.252;18.848;2023-05-16T07:34:40;6.00;;;5.00;;
62435;SDS011;48480;50.252;18.848;2023-05-16T07:37:23;5.60;;;4.70;;
62435;SDS011;48480;50.252;18.848;2023-05-16T07:40:08;6.50;;;5.20;;
62435;SDS011;48480;50.252;18.848;2023-05-16T07:42:53;5.50;;;4.90;;
62435;SDS011;48480;50.252;18.848;2023-05-16T07:45:38;7.90;;;5.00;;
62435;SDS011;48480;50.252;18.848;2023-05-16T07:48:22;6.50;;;5.50;;
62435;SDS011;48480;50.252;18.848;2023-05-16T07:51:06;6.30;;;5.50;;
62435;SDS011;48480;50.252;18.848;2023-05-16T07:53:50;9.10;;;5.30;;
62435;SDS011;48480;50.252;18.848;2023-05-16T07:56:35;6.90;;;5.80;;
62435;SDS011;48480;50.252;18.848;2023-05-16T07:59:21;6.40;;;5.20;;
62435;SDS011;48480;50.252;18.848;2023-05-16T08:02:05;5.50;;;5.00;;
62435;SDS011;48480;50.252;18.848;2023-05-16T08:04:50;6.00;;;5.20;;
62435;SDS011;48480;50.252;18.848;2023-05-16T08:07:36;6.00;;;5.40;;
62435;SDS011;48480;50.252;18.848;2023-05-16T08:10:20;6.50;;;5.50;;
62435;SDS011;48480;50.252;18.848;2023-05-16T08:13:06;5.10;;;4.60;;
62435;SDS011;48480;50.252;18.848;2023-05-16T08:15:50;8.20;;;5.30;;
62435;SDS011;48480;50.252;18.848;2023-05-16T08:18:34;6.90;;;5.00;;
62435;SDS011;48480;50.252;18.848;2023-05-16T08:21:21;5.50;;;4.90;;
62435;SDS011;48480;50.252;18.848;2023-05-16T08:24:05;6.20;;;5.30;;
62435;SDS011;48480;50.252;18.848;2023-05-16T08:26:53;6.50;;;4.80;;
62435;SDS011;48480;50.252;18.848;2023-05-16T08:29:37;6.90;;;4.90;;
62435;SDS011;48480;50.252;18.848;2023-05-16T08:32:21;5.60;;;5.00;;
62435;SDS011;48480;50.252;18.848;2023-05-16T08:35:06;6.20;;;4.60;;
62435;SDS011;48480;50.252;18.848;2023-05-16T08:37:51;7.60;;;4.60;;
62435;SDS011;48480;50.252;18.848;2023-05-16T08:40:36;6.30;;;4.90;;
62435;SDS011;48480;50.252;18.848;2023-05-16T08:43:20;4.90;;;4.50;;
62435;SDS011;48480;50.252;18.848;2023-05-16T08:46:06;7.50;;;5.00;;
62435;SDS011;48480;50.252;18.848;2023-05-16T08:48:51;9.00;;;5.50;;
62435;SDS011;48480;50.252;18.848;2023-05-16T08:51:36;5.90;;;4.60;;
62435;SDS011;48480;50.252;18.848;2023-05-16T08:54:21;5.20;;;4.10;;
62435;SDS011;48480;50.252;18.848;2023-05-16T08:57:05;5.20;;;4.70;;
62435;SDS011;48480;50.252;18.848;2023-05-16T08:59:52;5.90;;;4.50;;
62435;SDS011;48480;50.252;18.848;2023-05-16T09:02:40;7.40;;;4.70;;
62435;SDS011;48480;50.252;18.848;2023-05-16T09:05:28;5.80;;;5.20;;
62435;SDS011;48480;50.252;18.848;2023-05-16T09:08:13;5.40;;;4.90;;
62435;SDS011;48480;50.252;18.848;2023-05-16T09:10:57;6.40;;;5.10;;
62435;SDS011;48480;50.252;18.848;2023-05-16T09:13:41;5.30;;;4.80;;
62435;SDS011;48480;50.252;18.848;2023-05-16T09:16:25;6.50;;;5.20;;
62435;SDS011;48480;50.252;18.848;2023-05-16T09:19:11;6.40;;;5.20;;
62435;SDS011;48480;50.252;18.848;2023-05-16T09:21:55;7.10;;;4.50;;
62435;SDS011;48480;50.252;18.848;2023-05-16T09:24:40;6.20;;;5.60;;
62435;SDS011;48480;50.252;18.848;2023-05-16T09:27:25;5.80;;;5.10;;
62435;SDS011;48480;50.252;18.848;2023-05-16T09:30:09;7.20;;;4.80;;
62435;SDS011;48480;50.252;18.848;2023-05-16T09:32:56;7.10;;;5.30;;
62435;SDS011;48480;50.252;18.848;2023-05-16T09:35:41;6.00;;;5.30;;
62435;SDS011;48480;50.252;18.848;2023-05-16T09:38:26;6.20;;;5.60;;
62435;SDS011;48480;50.252;18.848;2023-05-16T09:41:10;7.00;;;5.40;;
62435;SDS011;48480;50.252;18.848;2023-05-16T09:43:55;7.20;;;6.20;;
62435;SDS011;48480;50.252;18.848;2023-05-16T09:46:39;10.80;;;6.10;;
62435;SDS011;48480;50.252;18.848;2023-05-16T09:49:23;7.30;;;6.60;;
62435;SDS011;48480;50.252;18.848;2023-05-16T09:52:09;7.60;;;6.90;;
62435;SDS011;48480;50.252;18.848;2023-05-16T09:54:53;7.40;;;6.70;;
62435;SDS011;48480;50.252;18.848;2023-05-16T09:57:37;7.40;;;5.90;;
62435;SDS011;48480;50.252;18.848;2023-05-16T10:00:32;9.70;;;6.20;;
62435;SDS011;48480;50.252;18.848;2023-05-16T10:03:16;8.30;;;5.80;;
62435;SDS011;48480;50.252;18.848;2023-05-16T10:06:02;9.10;;;6.50;;
62435;SDS011;48480;50.252;18.848;2023-05-16T10:08:46;7.30;;;5.50;;
62435;SDS011;48480;50.252;18.848;2023-05-16T10:11:31;7.90;;;6.00;;
62435;SDS011;48480;50.252;18.848;2023-05-16T10:14:18;8.10;;;5.80;;
62435;SDS011;48480;50.252;18.848;2023-05-16T10:17:04;7.80;;;6.50;;
62435;SDS011;48480;50.252;18.848;2023-05-16T10:19:50;7.60;;;6.20;;
62435;SDS011;48480;50.252;18.848;2023-05-16T10:22:38;7.20;;;5.80;;
62435;SDS011;48480;50.252;18.848;2023-05-16T10:25:33;7.60;;;6.10;;
62435;SDS011;48480;50.252;18.848;2023-05-16T10:28:21;21.90;;;5.30;;
62435;SDS011;48480;50.252;18.848;2023-05-16T10:31:08;6.30;;;5.10;;
62435;SDS011;48480;50.252;18.848;2023-05-16T10:33:54;6.70;;;5.10;;
62435;SDS011;48480;50.252;18.848;2023-05-16T10:36:39;6.40;;;5.70;;
62435;SDS011;48480;50.252;18.848;2023-05-16T10:39:23;6.30;;;5.30;;
62435;SDS011;48480;50.252;18.848;2023-05-16T10:42:08;7.10;;;4.70;;
62435;SDS011;48480;50.252;18.848;2023-05-16T10:44:54;6.70;;;5.60;;
62435;SDS011;48480;50.252;18.848;2023-05-16T10:47:49;6.20;;;5.60;;
62435;SDS011;48480;50.252;18.848;2023-05-16T10:50:41;6.60;;;5.40;;
62435;SDS011;48480;50.252;18.848;2023-05-16T10:53:33;5.80;;;5.00;;
62435;SDS011;48480;50.252;18.848;2023-05-16T10:56:22;6.00;;;4.80;;
62435;SDS011;48480;50.252;18.848;2023-05-16T10:59:24;9.60;;;5.10;;
62435;SDS011;48480;50.252;18.848;2023-05-16T11:02:26;6.10;;;4.80;;
62435;SDS011;48480;50.252;18.848;2023-05-16T11:05:12;8.00;;;4.80;;
62435;SDS011;48480;50.252;18.848;2023-05-16T11:08:05;7.00;;;5.20;;
62435;SDS011;48480;50.252;18.848;2023-05-16T11:10:49;7.40;;;4.60;;
62435;SDS011;48480;50.252;18.848;2023-05-16T11:13:33;6.30;;;4.70;;
62435;SDS011;48480;50.252;18.848;2023-05-16T11:16:35;7.80;;;4.50;;
62435;SDS011;48480;50.252;18.848;2023-05-16T11:22:23;4.30;;;3.60;;
62435;SDS011;48480;50.252;18.848;2023-05-16T11:25:17;3.70;;;3.40;;
62435;SDS011;48480;50.252;18.848;2023-05-16T11:28:18;3.70;;;3.20;;
62435;SDS011;48480;50.252;18.848;2023-05-16T11:31:03;6.10;;;3.90;;
62435;SDS011;48480;50.252;18.848;2023-05-16T11:45:02;5.90;;;4.30;;
62435;SDS011;48480;50.252;18.848;2023-05-16T11:47:50;4.60;;;3.50;;
62435;SDS011;48480;50.252;18.848;2023-05-16T11:50:34;4.70;;;3.50;;
62435;SDS011;48480;50.252;18.848;2023-05-16T11:53:19;6.80;;;3.70;;
62435;SDS011;48480;50.252;18.848;2023-05-16T11:56:06;3.90;;;3.50;;
62435;SDS011;48480;50.252;18.848;2023-05-16T11:58:51;7.40;;;3.90;;
62435;SDS011;48480;50.252;18.848;2023-05-16T12:01:39;9.50;;;3.40;;
62435;SDS011;48480;50.252;18.848;2023-05-16T12:04:23;5.80;;;3.80;;
62435;SDS011;48480;50.252;18.848;2023-05-16T12:07:10;5.20;;;4.00;;
62435;SDS011;48480;50.252;18.848;2023-05-16T12:09:54;6.70;;;3.60;;
62435;SDS011;48480;50.252;18.848;2023-05-16T12:12:38;3.80;;;3.20;;
62435;SDS011;48480;50.252;18.848;2023-05-16T12:15:23;5.60;;;3.20;;
62435;SDS011;48480;50.252;18.848;2023-05-16T12:18:08;4.70;;;3.50;;
62435;SDS011;48480;50.252;18.848;2023-05-16T12:20:53;6.80;;;3.30;;
62435;SDS011;48480;50.252;18.848;2023-05-16T12:23:37;6.30;;;3.90;;
62435;SDS011;48480;50.252;18.848;2023-05-16T12:26:23;17.00;;;11.70;;
62435;SDS011;48480;50.252;18.848;2023-05-16T12:29:13;53.10;;;36.00;;
62435;SDS011;48480;50.252;18.848;2023-05-16T12:31:57;7.60;;;5.20;;
62435;SDS011;48480;50.252;18.848;2023-05-16T12:34:47;7.10;;;3.40;;
62435;SDS011;48480;50.252;18.848;2023-05-16T12:37:35;7.20;;;3.50;;
62435;SDS011;48480;50.252;18.848;2023-05-16T12:40:19;4.90;;;3.30;;
62435;SDS011;48480;50.252;18.848;2023-05-16T12:43:21;4.90;;;3.50;;
62435;SDS011;48480;50.252;18.848;2023-05-16T12:46:08;5.70;;;3.30;;
62435;SDS011;48480;50.252;18.848;2023-05-16T12:49:00;3.50;;;3.20;;
62435;SDS011;48480;50.252;18.848;2023-05-16T12:51:50;4.20;;;3.10;;
62435;SDS011;48480;50.252;18.848;2023-05-16T12:54:35;4.10;;;3.40;;
62435;SDS011;48480;50.252;18.848;2023-05-16T12:57:19;5.60;;;3.30;;
62435;SDS011;48480;50.252;18.848;2023-05-16T13:00:03;4.20;;;3.20;;
62435;SDS011;48480;50.252;18.848;2023-05-16T13:02:50;6.80;;;3.70;;
62435;SDS011;48480;50.252;18.848;2023-05-16T13:05:34;5.90;;;3.30;;
62435;SDS011;48480;50.252;18.848;2023-05-16T13:08:18;4.00;;;3.60;;
62435;SDS011;48480;50.252;18.848;2023-05-16T13:11:03;9.10;;;4.10;;
62435;SDS011;48480;50.252;18.848;2023-05-16T13:13:46;4.30;;;3.40;;
62435;SDS011;48480;50.252;18.848;2023-05-16T13:16:30;6.30;;;3.70;;
62435;SDS011;48480;50.252;18.848;2023-05-16T13:19:15;4.50;;;3.40;;
62435;SDS011;48480;50.252;18.848;2023-05-16T13:21:59;7.50;;;3.90;;
62435;SDS011;48480;50.252;18.848;2023-05-16T13:24:43;4.10;;;3.70;;
62435;SDS011;48480;50.252;18.848;2023-05-16T13:27:27;9.30;;;4.80;;
62435;SDS011;48480;50.252;18.848;2023-05-16T13:30:11;6.80;;;4.50;;
62435;SDS011;48480;50.252;18.848;2023-05-16T13:32:54;6.70;;;4.80;;
62435;SDS011;48480;50.252;18.848;2023-05-16T13:35:39;6.60;;;3.90;;
62435;SDS011;48480;50.252;18.848;2023-05-16T13:38:23;5.70;;;3.90;;
62435;SDS011;48480;50.252;18.848;2023-05-16T13:41:07;4.90;;;3.90;;
62435;SDS011;48480;50.252;18.848;2023-05-16T13:43:51;5.50;;;4.00;;
62435;SDS011;48480;50.252;18.848;2023-05-16T13:46:35;8.50;;;4.20;;
62435;SDS011;48480;50.252;18.848;2023-05-16T13:49:19;4.80;;;4.00;;
62435;SDS011;48480;50.252;18.848;2023-05-16T13:52:03;6.30;;;4.30;;
62435;SDS011;48480;50.252;18.848;2023-05-16T13:54:48;7.10;;;4.90;;
62435;SDS011;48480;50.252;18.848;2023-05-16T13:57:32;6.70;;;5.20;;
62435;SDS011;48480;50.252;18.848;2023-05-16T14:00:17;6.90;;;5.10;;
62435;SDS011;48480;50.252;18.848;2023-05-16T14:03:02;10.00;;;5.00;;
62435;SDS011;48480;50.252;18.848;2023-05-16T14:05:46;6.70;;;5.80;;
62435;SDS011;48480;50.252;18.848;2023-05-16T14:08:34;7.60;;;5.50;;
62435;SDS011;48480;50.252;18.848;2023-05-16T14:11:18;7.10;;;5.20;;
62435;SDS011;48480;50.252;18.848;2023-05-16T14:14:07;7.00;;;5.30;;
62435;SDS011;48480;50.252;18.848;2023-05-16T14:16:52;5.60;;;5.00;;
62435;SDS011;48480;50.252;18.848;2023-05-16T14:19:38;6.00;;;5.50;;
62435;SDS011;48480;50.252;18.848;2023-05-16T14:22:22;7.20;;;5.30;;
62435;SDS011;48480;50.252;18.848;2023-05-16T14:25:07;6.00;;;5.20;;
62435;SDS011;48480;50.252;18.848;2023-05-16T14:27:51;10.20;;;5.50;;
62435;SDS011;48480;50.252;18.848;2023-05-16T14:30:36;6.80;;;5.90;;
62435;SDS011;48480;50.252;18.848;2023-05-16T14:33:20;7.00;;;6.30;;
62435;SDS011;48480;50.252;18.848;2023-05-16T14:36:06;8.50;;;7.20;;
62435;SDS011;48480;50.252;18.848;2023-05-16T14:38:53;9.00;;;7.20;;
62435;SDS011;48480;50.252;18.848;2023-05-16T14:41:39;9.20;;;8.20;;
62435;SDS011;48480;50.252;18.848;2023-05-16T14:44:23;10.70;;;7.70;;
62435;SDS011;48480;50.252;18.848;2023-05-16T14:47:09;8.50;;;7.60;;
62435;SDS011;48480;50.252;18.848;2023-05-16T14:49:53;9.30;;;7.70;;
62435;SDS011;48480;50.252;18.848;2023-05-16T14:52:38;9.30;;;8.20;;
62435;SDS011;48480;50.252;18.848;2023-05-16T14:55:22;13.40;;;9.30;;
62435;SDS011;48480;50.252;18.848;2023-05-16T14:58:06;12.80;;;10.10;;
62435;SDS011;48480;50.252;18.848;2023-05-16T15:00:51;11.70;;;10.10;;
62435;SDS011;48480;50.252;18.848;2023-05-16T15:03:35;11.80;;;9.40;;
62435;SDS011;48480;50.252;18.848;2023-05-16T15:06:20;14.10;;;9.10;;
62435;SDS011;48480;50.252;18.848;2023-05-16T15:09:07;10.40;;;9.20;;
62435;SDS011;48480;50.252;18.848;2023-05-16T15:11:51;10.50;;;9.20;;
62435;SDS011;48480;50.252;18.848;2023-05-16T15:14:35;10.20;;;8.80;;
62435;SDS011;48480;50.252;18.848;2023-05-16T15:17:21;13.50;;;9.40;;
62435;SDS011;48480;50.252;18.848;2023-05-16T15:20:08;12.50;;;9.50;;
62435;SDS011;48480;50.252;18.848;2023-05-16T15:22:53;15.50;;;10.00;;
62435;SDS011;48480;50.252;18.848;2023-05-16T15:25:44;8.30;;;7.10;;
62435;SDS011;48480;50.252;18.848;2023-05-16T15:28:28;9.50;;;7.30;;
62435;SDS011;48480;50.252;18.848;2023-05-16T15:31:15;10.70;;;7.80;;
62435;SDS011;48480;50.252;18.848;2023-05-16T15:34:02;9.60;;;8.10;;
62435;SDS011;48480;50.252;18.848;2023-05-16T15:36:49;10.70;;;8.50;;
62435;SDS011;48480;50.252;18.848;2023-05-16T15:39:42;14.50;;;10.20;;
62435;SDS011;48480;50.252;18.848;2023-05-16T15:42:26;15.90;;;10.20;;
62435;SDS011;48480;50.252;18.848;2023-05-16T15:45:13;12.50;;;9.50;;
62435;SDS011;48480;50.252;18.848;2023-05-16T15:47:57;16.20;;;10.20;;
62435;SDS011;48480;50.252;18.848;2023-05-16T15:50:41;12.20;;;10.90;;
62435;SDS011;48480;50.252;18.848;2023-05-16T15:53:27;14.80;;;11.80;;
62435;SDS011;48480;50.252;18.848;2023-05-16T15:56:11;14.50;;;11.90;;
62435;SDS011;48480;50.252;18.848;2023-05-16T15:58:56;17.00;;;12.20;;
62435;SDS011;48480;50.252;18.848;2023-05-16T16:01:41;19.50;;;14.80;;
62435;SDS011;48480;50.252;18.848;2023-05-16T16:04:24;22.10;;;15.70;;
62435;SDS011;48480;50.252;18.848;2023-05-16T16:07:09;16.40;;;13.20;;
62435;SDS011;48480;50.252;18.848;2023-05-16T16:09:54;16.90;;;12.70;;
62435;SDS011;48480;50.252;18.848;2023-05-16T16:12:42;17.70;;;14.00;;
62435;SDS011;48480;50.252;18.848;2023-05-16T16:15:28;17.20;;;14.10;;
62435;SDS011;48480;50.252;18.848;2023-05-16T16:18:13;16.60;;;13.80;;
62435;SDS011;48480;50.252;18.848;2023-05-16T16:20:57;17.50;;;13.30;;
62435;SDS011;48480;50.252;18.848;2023-05-16T16:23:41;15.50;;;13.20;;
62435;SDS011;48480;50.252;18.848;2023-05-16T16:26:26;14.70;;;12.40;;
62435;SDS011;48480;50.252;18.848;2023-05-16T16:29:11;15.10;;;12.70;;
62435;SDS011;48480;50.252;18.848;2023-05-16T16:31:56;13.20;;;10.90;;
62435;SDS011;48480;50.252;18.848;2023-05-16T16:34:41;12.10;;;10.20;;
62435;SDS011;48480;50.252;18.848;2023-05-16T16:37:25;13.20;;;10.90;;
62435;SDS011;48480;50.252;18.848;2023-05-16T16:40:11;13.60;;;9.90;;
62435;SDS011;48480;50.252;18.848;2023-05-16T16:42:55;12.40;;;9.70;;
62435;SDS011;48480;50.252;18.848;2023-05-16T16:45:39;12.10;;;9.80;;
62435;SDS011;48480;50.252;18.848;2023-05-16T16:48:25;11.30;;;10.00;;